Terminal Aerodrome Forecast
Issued by NWS

Home | Current Version | Previous Version | Text Only | Print | Product List | Glossary On
Versions: 1 2 3 4 5 6 7 8 9 10 11 12 13 14 15 16 17 18 19 20 21 22 23 24 25 26 27 28 29 30 31 32 33 34 35 36 37 38 39 40
769
FTUS43 KPAH 192337
TAFOWB
TAF
KOWB 192337Z 2000/2024 VRB03KT P6SM FEW050 SCT200
     FM200200 21004KT P6SM FEW060 SCT200 PROB30 2014/2020 4SM -SHRA
      BKN250
     FM202100 23007KT P6SM FEW200 PROB30 2021/2024 4SM -TSRA
      BKN040CB=

USA.gov is the U.S. government's official web portal to all federal, state and local government web resources and services.